Time,TemperatureF,DewpointF,PressureIn,WindDirection,WindDirectionDegrees,WindSpeedMPH,WindSpeedGustMPH,Humidity,HourlyPrecipIn,Conditions,Clouds,dailyrainin,SoftwareType,DateUTC
2013-07-27 00:07:00,74.5,68.3,29.98,SSE,157,5.3,-999.0,81,-99.99,,,0.00,Acu-Link.com,2013-07-27 06:07:00,
2013-07-27 00:23:00,74.5,66.0,29.99,SSE,157,2.7,-999.0,75,-99.99,,,0.00,Acu-Link.com,2013-07-27 06:23:00,
2013-07-27 00:38:00,69.6,64.2,30.00,SW,225,10.9,-999.0,83,-99.99,,,0.01,Acu-Link.com,2013-07-27 06:38:00,
2013-07-27 00:53:00,67.3,65.2,29.99,ENE,67,5.8,-999.0,93,-99.99,,,0.30,Acu-Link.com,2013-07-27 06:53:00,
2013-07-27 01:08:00,67.1,64.7,30.01,ESE,112,3.7,-999.0,92,-99.99,,,0.32,Acu-Link.com,2013-07-27 07:08:00,
2013-07-27 01:23:00,67.3,64.6,30.01,ESE,112,0.0,-999.0,91,-99.99,,,0.33,Acu-Link.com,2013-07-27 07:23:00,
2013-07-27 01:39:00,66.9,65.7,30.03,NNE,22,3.2,-999.0,96,-99.99,,,0.34,Acu-Link.com,2013-07-27 07:39:00,
2013-07-27 01:54:00,66.9,65.4,30.04,North,0,10.4,-999.0,95,-99.99,,,0.34,Acu-Link.com,2013-07-27 07:54:00,
2013-07-27 02:10:00,66.9,66.0,30.03,ENE,67,7.8,-999.0,97,-99.99,,,0.40,Acu-Link.com,2013-07-27 08:10:00,
2013-07-27 02:25:00,66.7,65.8,30.03,NNE,22,8.9,-999.0,97,-99.99,,,0.40,Acu-Link.com,2013-07-27 08:25:00,
2013-07-27 02:40:00,66.7,65.8,30.01,NNW,337,8.9,-999.0,97,-99.99,,,0.41,Acu-Link.com,2013-07-27 08:40:00,
2013-07-27 02:55:00,66.6,65.4,30.02,NE,45,7.8,-999.0,96,-99.99,,,0.41,Acu-Link.com,2013-07-27 08:55:00,
2013-07-27 03:11:00,66.4,64.9,30.01,NNE,22,8.9,-999.0,95,-99.99,,,0.41,Acu-Link.com,2013-07-27 09:11:00,
2013-07-27 03:26:00,66.0,64.5,30.00,NW,315,5.3,-999.0,95,-99.99,,,0.41,Acu-Link.com,2013-07-27 09:26:00,
2013-07-27 03:41:00,65.8,64.6,30.00,NNW,337,8.3,-999.0,96,-99.99,,,0.42,Acu-Link.com,2013-07-27 09:41:00,
2013-07-27 04:11:00,65.7,64.8,30.01,NE,45,5.3,-999.0,97,-99.99,,,0.42,Acu-Link.com,2013-07-27 10:11:00,
2013-07-27 04:26:00,65.8,64.9,30.03,NNE,22,5.8,-999.0,97,-99.99,,,0.42,Acu-Link.com,2013-07-27 10:26:00,
2013-07-27 04:42:00,65.7,64.8,30.04,NE,45,7.8,-999.0,97,-99.99,,,0.42,Acu-Link.com,2013-07-27 10:42:00,
2013-07-27 04:57:00,65.7,64.2,30.03,NNW,337,7.3,-999.0,95,-99.99,,,0.42,Acu-Link.com,2013-07-27 10:57:00,
2013-07-27 05:13:00,65.8,64.0,30.03,NW,315,5.8,-999.0,94,-99.99,,,0.42,Acu-Link.com,2013-07-27 11:13:00,
2013-07-27 05:29:00,66.0,64.2,30.03,North,0,5.8,-999.0,94,-99.99,,,0.42,Acu-Link.com,2013-07-27 11:29:00,
2013-07-27 05:44:00,66.2,64.4,30.03,NNW,337,7.8,-999.0,94,-99.99,,,0.42,Acu-Link.com,2013-07-27 11:44:00,
2013-07-27 05:59:00,66.6,64.8,30.03,North,0,6.8,-999.0,94,-99.99,,,0.42,Acu-Link.com,2013-07-27 11:59:00,
2013-07-27 06:14:00,66.7,64.9,30.02,NNW,337,8.3,-999.0,94,-99.99,,,0.42,Acu-Link.com,2013-07-27 12:14:00,
2013-07-27 06:29:00,66.9,65.1,30.03,NW,315,6.8,-999.0,94,-99.99,,,0.42,Acu-Link.com,2013-07-27 12:29:00,
2013-07-27 06:44:00,66.9,65.1,30.03,NNW,337,7.3,-999.0,94,-99.99,,,0.42,Acu-Link.com,2013-07-27 12:44:00,
2013-07-27 06:59:00,66.9,65.1,30.02,NNE,22,2.7,-999.0,94,-99.99,,,0.42,Acu-Link.com,2013-07-27 12:59:00,
2013-07-27 07:15:00,67.1,65.3,30.02,NW,315,6.8,-999.0,94,-99.99,,,0.42,Acu-Link.com,2013-07-27 13:15:00,
2013-07-27 07:30:00,67.6,65.5,30.02,NNE,22,4.2,-999.0,93,-99.99,,,0.42,Acu-Link.com,2013-07-27 13:30:00,
2013-07-27 07:45:00,68.0,65.3,30.02,North,0,6.3,-999.0,91,-99.99,,,0.42,Acu-Link.com,2013-07-27 13:45:00,
2013-07-27 08:00:00,68.2,65.1,30.01,North,0,7.3,-999.0,90,-99.99,,,0.42,Acu-Link.com,2013-07-27 14:00:00,
2013-07-27 08:15:00,69.8,65.7,30.01,NNW,337,6.3,-999.0,87,-99.99,,,0.42,Acu-Link.com,2013-07-27 14:15:00,
2013-07-27 08:30:00,70.3,65.6,30.02,NNW,337,5.3,-999.0,85,-99.99,,,0.42,Acu-Link.com,2013-07-27 14:30:00,
2013-07-27 08:45:00,71.4,66.0,30.01,NNE,22,7.8,-999.0,83,-99.99,,,0.42,Acu-Link.com,2013-07-27 14:45:00,
2013-07-27 09:00:00,71.8,66.0,30.00,NW,315,5.8,-999.0,82,-99.99,,,0.42,Acu-Link.com,2013-07-27 15:00:00,
2013-07-27 09:16:00,71.6,65.8,30.01,NNW,337,4.2,-999.0,82,-99.99,,,0.42,Acu-Link.com,2013-07-27 15:16:00,
2013-07-27 09:31:00,72.7,65.1,30.02,NNE,22,4.7,-999.0,77,-99.99,,,0.42,Acu-Link.com,2013-07-27 15:31:00,
2013-07-27 09:46:00,73.2,65.5,30.01,NE,45,6.8,-999.0,77,-99.99,,,0.42,Acu-Link.com,2013-07-27 15:46:00,
2013-07-27 10:01:00,73.4,65.4,30.00,North,0,6.8,-999.0,76,-99.99,,,0.42,Acu-Link.com,2013-07-27 16:01:00,
2013-07-27 10:16:00,73.6,65.6,30.01,NNE,22,3.7,-999.0,76,-99.99,,,0.42,Acu-Link.com,2013-07-27 16:16:00,
2013-07-27 10:32:00,75.0,66.1,30.00,NW,315,5.3,-999.0,74,-99.99,,,0.42,Acu-Link.com,2013-07-27 16:32:00,
2013-07-27 11:02:00,76.8,65.8,29.99,NW,315,5.8,-999.0,69,-99.99,,,0.42,Acu-Link.com,2013-07-27 17:02:00,
2013-07-27 11:17:00,76.5,65.6,29.99,NE,45,5.8,-999.0,69,-99.99,,,0.42,Acu-Link.com,2013-07-27 17:17:00,
2013-07-27 11:33:00,76.3,65.8,29.99,NNE,22,5.3,-999.0,70,-99.99,,,0.42,Acu-Link.com,2013-07-27 17:33:00,
2013-07-27 11:48:00,76.3,66.2,29.98,NW,315,5.3,-999.0,71,-99.99,,,0.42,Acu-Link.com,2013-07-27 17:48:00,
2013-07-27 12:03:00,76.8,65.8,29.98,NNW,337,6.3,-999.0,69,-99.99,,,0.42,Acu-Link.com,2013-07-27 18:03:00,
2013-07-27 12:18:00,80.4,66.6,29.97,NW,315,4.2,-999.0,63,-99.99,,,0.42,Acu-Link.com,2013-07-27 18:18:00,
2013-07-27 12:33:00,79.2,66.0,29.97,North,0,3.7,-999.0,64,-99.99,,,0.42,Acu-Link.com,2013-07-27 18:33:00,
2013-07-27 12:49:00,82.2,65.9,29.96,NNE,22,5.3,-999.0,58,-99.99,,,0.42,Acu-Link.com,2013-07-27 18:49:00,
2013-07-27 13:04:00,80.8,65.6,29.97,NNE,22,3.7,-999.0,60,-99.99,,,0.42,Acu-Link.com,2013-07-27 19:04:00,
2013-07-27 13:19:00,80.6,65.4,29.95,ENE,67,7.8,-999.0,60,-99.99,,,0.42,Acu-Link.com,2013-07-27 19:19:00,
2013-07-27 13:34:00,80.8,65.6,29.96,NNW,337,5.3,-999.0,60,-99.99,,,0.42,Acu-Link.com,2013-07-27 19:34:00,
2013-07-27 13:49:00,81.1,65.9,29.94,West,270,5.8,-999.0,60,-99.99,,,0.42,Acu-Link.com,2013-07-27 19:49:00,
2013-07-27 14:04:00,81.5,66.3,29.92,NNW,337,9.4,-999.0,60,-99.99,,,0.42,Acu-Link.com,2013-07-27 20:04:00,
2013-07-27 14:19:00,82.4,66.6,29.92,NNE,22,5.3,-999.0,59,-99.99,,,0.42,Acu-Link.com,2013-07-27 20:19:00,
2013-07-27 14:34:00,82.9,65.6,29.92,NE,45,2.2,-999.0,56,-99.99,,,0.42,Acu-Link.com,2013-07-27 20:34:00,
2013-07-27 14:49:00,84.6,66.1,29.89,ESE,112,5.8,-999.0,54,-99.99,,,0.42,Acu-Link.com,2013-07-27 20:49:00,
2013-07-27 15:05:00,83.8,65.9,29.89,North,0,6.3,-999.0,55,-99.99,,,0.42,Acu-Link.com,2013-07-27 21:05:00,
2013-07-27 15:20:00,84.7,65.1,29.87,ENE,67,2.2,-999.0,52,-99.99,,,0.42,Acu-Link.com,2013-07-27 21:20:00,
2013-07-27 15:35:00,86.0,64.6,29.86,WNW,292,7.3,-999.0,49,-99.99,,,0.42,Acu-Link.com,2013-07-27 21:35:00,
2013-07-27 15:50:00,86.4,65.5,29.85,North,0,3.2,-999.0,50,-99.99,,,0.42,Acu-Link.com,2013-07-27 21:50:00,
2013-07-27 16:06:00,86.2,64.2,29.84,NE,45,5.8,-999.0,48,-99.99,,,0.42,Acu-Link.com,2013-07-27 22:06:00,
2013-07-27 16:21:00,88.2,65.4,29.84,NNE,22,4.2,-999.0,47,-99.99,,,0.42,Acu-Link.com,2013-07-27 22:21:00,
2013-07-27 16:37:00,85.6,64.2,29.84,SW,225,4.7,-999.0,49,-99.99,,,0.42,Acu-Link.com,2013-07-27 22:37:00,
2013-07-27 16:52:00,88.0,64.6,29.83,ENE,67,7.3,-999.0,46,-99.99,,,0.42,Acu-Link.com,2013-07-27 22:52:00,
2013-07-27 17:07:00,86.9,64.2,29.83,East,90,3.7,-999.0,47,-99.99,,,0.42,Acu-Link.com,2013-07-27 23:07:00,
2013-07-27 17:22:00,87.8,64.4,29.82,WNW,292,5.3,-999.0,46,-99.99,,,0.42,Acu-Link.com,2013-07-27 23:22:00,
2013-07-27 17:38:00,86.0,64.0,29.81,ESE,112,4.2,-999.0,48,-99.99,,,0.42,Acu-Link.com,2013-07-27 23:38:00,
2013-07-27 17:53:00,86.4,63.8,29.82,NNE,22,4.2,-999.0,47,-99.99,,,0.42,Acu-Link.com,2013-07-27 23:53:00,
2013-07-27 18:08:00,88.5,63.8,29.83,WSW,247,1.7,-999.0,44,-99.99,,,0.42,Acu-Link.com,2013-07-28 00:08:00,
2013-07-27 18:23:00,88.9,63.5,29.82,NNW,337,3.7,-999.0,43,-99.99,,,0.42,Acu-Link.com,2013-07-28 00:23:00,
2013-07-27 18:39:00,86.4,63.1,29.82,East,90,3.7,-999.0,46,-99.99,,,0.42,Acu-Link.com,2013-07-28 00:39:00,
2013-07-27 18:54:00,87.6,63.0,29.82,WNW,292,4.2,-999.0,44,-99.99,,,0.42,Acu-Link.com,2013-07-28 00:54:00,
2013-07-27 19:09:00,85.1,63.2,29.82,NE,45,5.3,-999.0,48,-99.99,,,0.42,Acu-Link.com,2013-07-28 01:09:00,
2013-07-27 19:24:00,84.2,62.9,29.81,NNW,337,2.7,-999.0,49,-99.99,,,0.42,Acu-Link.com,2013-07-28 01:24:00,
2013-07-27 19:39:00,83.1,62.5,29.81,NE,45,3.7,-999.0,50,-99.99,,,0.42,Acu-Link.com,2013-07-28 01:39:00,
2013-07-27 19:54:00,82.4,62.4,29.82,ESE,112,1.7,-999.0,51,-99.99,,,0.42,Acu-Link.com,2013-07-28 01:54:00,
2013-07-27 20:10:00,81.7,61.8,29.82,East,90,2.7,-999.0,51,-99.99,,,0.42,Acu-Link.com,2013-07-28 02:10:00,
2013-07-27 20:25:00,81.1,62.9,29.83,SSE,157,8.9,-999.0,54,-99.99,,,0.42,Acu-Link.com,2013-07-28 02:25:00,
2013-07-27 20:40:00,80.2,64.5,29.83,ESE,112,10.4,-999.0,59,-99.99,,,0.42,Acu-Link.com,2013-07-28 02:40:00,
2013-07-27 20:55:00,79.9,64.3,29.83,SE,135,6.3,-999.0,59,-99.99,,,0.42,Acu-Link.com,2013-07-28 02:55:00,
2013-07-27 21:10:00,79.3,64.7,29.83,SE,135,7.8,-999.0,61,-99.99,,,0.42,Acu-Link.com,2013-07-28 03:10:00,
2013-07-27 21:26:00,79.0,64.8,29.84,SE,135,6.3,-999.0,62,-99.99,,,0.42,Acu-Link.com,2013-07-28 03:26:00,
2013-07-27 21:41:00,78.6,64.9,29.84,SE,135,9.9,-999.0,63,-99.99,,,0.42,Acu-Link.com,2013-07-28 03:41:00,
2013-07-27 21:56:00,78.6,64.5,29.85,South,180,8.9,-999.0,62,-99.99,,,0.42,Acu-Link.com,2013-07-28 03:56:00,
2013-07-27 22:26:00,77.9,64.7,29.85,SSE,157,7.8,-999.0,64,-99.99,,,0.42,Acu-Link.com,2013-07-28 04:26:00,
2013-07-27 22:57:00,77.4,65.1,29.86,SE,135,5.8,-999.0,66,-99.99,,,0.42,Acu-Link.com,2013-07-28 04:57:00,
2013-07-27 23:12:00,77.4,65.6,29.87,SSW,202,6.3,-999.0,67,-99.99,,,0.42,Acu-Link.com,2013-07-28 05:12:00,
2013-07-27 23:27:00,76.5,66.0,29.86,South,180,6.3,-999.0,70,-99.99,,,0.42,Acu-Link.com,2013-07-28 05:27:00,
2013-07-27 23:42:00,76.1,66.4,29.86,South,180,4.2,-999.0,72,-99.99,,,0.42,Acu-Link.com,2013-07-28 05:42:00,
2013-07-27 23:58:00,74.8,64.8,29.86,South,180,8.9,-999.0,71,-99.99,,,0.42,Acu-Link.com,2013-07-28 05:58:00,